createdAt,value
2023-03-26T00:04:35.832Z,6.01
2023-03-26T00:09:58.126Z,5.96
2023-03-26T00:15:19.058Z,5.94
2023-03-26T00:20:41.556Z,5.92
2023-03-26T00:26:03.438Z,5.86
2023-03-26T00:31:24.222Z,5.84
2023-03-26T00:36:46.948Z,5.83
2023-03-26T00:42:08.258Z,5.81
2023-03-26T00:47:29.358Z,5.80
2023-03-26T00:52:50.635Z,5.68
2023-03-26T00:58:12.836Z,5.61
2023-03-26T01:03:35.653Z,5.58
2023-03-26T01:09:00.529Z,5.53
2023-03-26T01:14:24.346Z,5.42
2023-03-26T01:19:56.223Z,5.33
2023-03-26T01:25:17.218Z,5.28
2023-03-26T01:30:43.665Z,5.15
2023-03-26T01:36:17.037Z,5.16
2023-03-26T01:42:19.442Z,5.08
2023-03-26T01:47:42.234Z,4.94
2023-03-26T02:01:31.076Z,4.66
2023-03-26T02:07:02.503Z,4.62
2023-03-26T02:12:24.676Z,4.79
2023-03-26T02:17:45.596Z,4.84
2023-03-26T02:23:06.867Z,4.78
2023-03-26T02:28:27.828Z,4.68
2023-03-26T02:33:49.588Z,4.76
2023-03-26T02:39:11.960Z,4.72
2023-03-26T02:44:33.311Z,4.76
2023-03-26T02:50:14.760Z,4.72
2023-03-26T02:56:02.018Z,4.80
2023-03-26T03:01:35.212Z,4.82
2023-03-26T03:06:57.664Z,4.69
2023-03-26T03:12:19.546Z,4.74
2023-03-26T03:17:40.700Z,4.70
2023-03-26T03:23:01.782Z,4.68
2023-03-26T03:28:25.396Z,4.62
2023-03-26T03:33:46.513Z,4.75
2023-03-26T03:39:09.471Z,4.82
2023-03-26T03:44:31.076Z,4.86
2023-03-26T03:49:53.682Z,4.88
2023-03-26T03:55:15.228Z,4.84
2023-03-26T04:00:41.832Z,4.89
2023-03-26T04:06:21.339Z,4.83
2023-03-26T04:11:46.063Z,4.94
2023-03-26T04:17:23.587Z,4.84
2023-03-26T04:22:48.079Z,4.82
2023-03-26T04:28:22.273Z,4.77
2023-03-26T04:33:55.296Z,4.74
2023-03-26T04:39:16.490Z,4.73
2023-03-26T04:45:03.110Z,4.83
2023-03-26T04:50:26.570Z,4.76
2023-03-26T04:56:14.093Z,4.69
2023-03-26T05:02:00.036Z,4.68
2023-03-26T05:07:24.172Z,4.74
2023-03-26T05:12:53.590Z,4.67
2023-03-26T05:18:18.758Z,4.63
2023-03-26T05:23:43.937Z,4.60
2023-03-26T05:29:17.853Z,4.49
2023-03-26T05:34:42.463Z,4.43
2023-03-26T05:40:04.233Z,4.43
2023-03-26T05:45:37.270Z,4.44
2023-03-26T05:51:15.730Z,4.41
2023-03-26T05:56:44.495Z,4.45
2023-03-26T06:02:23.886Z,4.50
2023-03-26T06:08:04.124Z,4.53
2023-03-26T06:13:30.558Z,4.86
2023-03-26T06:18:56.754Z,4.86
2023-03-26T06:24:26.819Z,4.73
2023-03-26T06:30:03.151Z,4.72
2023-03-26T06:35:43.164Z,5.07
2023-03-26T06:41:06.238Z,5.31
2023-03-26T06:46:45.529Z,5.37
2023-03-26T06:52:38.650Z,5.48
2023-03-26T06:58:25.029Z,5.39
2023-03-26T07:04:08.655Z,5.50
2023-03-26T07:09:49.982Z,5.99
2023-03-26T07:15:37.927Z,6.26
2023-03-26T07:21:33.992Z,6.32
2023-03-26T07:27:17.468Z,6.28
2023-03-26T07:33:24.493Z,6.59
2023-03-26T07:39:15.483Z,6.94
2023-03-26T07:45:19.509Z,6.95
2023-03-26T07:51:13.669Z,6.85
2023-03-26T07:56:59.703Z,6.98
2023-03-26T08:03:06.860Z,7.50
2023-03-26T08:09:17.598Z,7.78
2023-03-26T08:15:12.779Z,8.04
2023-03-26T08:20:51.736Z,7.91
2023-03-26T08:26:41.452Z,7.59
2023-03-26T08:32:04.657Z,7.79
2023-03-26T08:37:26.518Z,8.28
2023-03-26T08:43:16.978Z,7.96
2023-03-26T08:48:47.122Z,7.94
2023-03-26T08:54:26.991Z,8.02
2023-03-26T09:00:03.031Z,7.86
2023-03-26T09:05:43.486Z,8.01
2023-03-26T09:11:07.346Z,8.37
2023-03-26T09:16:34.393Z,8.46
2023-03-26T09:22:23.306Z,8.36
2023-03-26T09:28:16.297Z,8.53
2023-03-26T09:34:13.968Z,8.77
2023-03-26T09:39:58.852Z,8.90
2023-03-26T09:45:39.822Z,9.03
2023-03-26T09:51:14.078Z,9.12
2023-03-26T09:57:25.795Z,9.37
2023-03-26T10:03:14.999Z,10.02
2023-03-26T10:09:08.772Z,10.31
2023-03-26T10:14:53.432Z,10.56
2023-03-26T10:20:44.122Z,10.71
2023-03-26T10:26:29.485Z,10.95
2023-03-26T10:32:06.581Z,11.13
2023-03-26T10:37:49.093Z,11.36
2023-03-26T10:44:07.836Z,12.27
2023-03-26T10:50:07.231Z,15.84
2023-03-26T10:55:47.321Z,27.18
2023-03-26T11:01:36.572Z,32.97
2023-03-26T11:07:17.667Z,35.81
2023-03-26T11:12:57.323Z,39.48
2023-03-26T11:18:28.582Z,41.03
2023-03-26T11:24:12.982Z,41.28
2023-03-26T11:30:03.393Z,40.80
2023-03-26T11:35:40.399Z,39.81
2023-03-26T11:41:11.271Z,39.68
2023-03-26T11:47:10.284Z,40.27
2023-03-26T11:52:33.582Z,40.25
2023-03-26T11:57:57.966Z,43.36
2023-03-26T12:03:20.861Z,43.53
2023-03-26T12:08:41.480Z,44.21
2023-03-26T12:14:07.949Z,46.09
2023-03-26T12:19:35.618Z,46.43
2023-03-26T12:25:16.135Z,46.09
2023-03-26T12:30:39.510Z,45.41
2023-03-26T12:36:17.496Z,45.95
2023-03-26T12:42:25.787Z,47.66
2023-03-26T12:48:01.747Z,46.78
2023-03-26T12:53:20.441Z,47.93
2023-03-26T12:59:06.344Z,46.98
2023-03-26T13:05:02.234Z,47.20
2023-03-26T13:10:49.489Z,48.24
2023-03-26T13:16:15.480Z,48.61
2023-03-26T13:21:51.177Z,48.67
2023-03-26T13:27:51.059Z,47.22
2023-03-26T13:33:39.609Z,46.75
2023-03-26T13:39:20.933Z,47.23
2023-03-26T13:45:05.274Z,45.93
2023-03-26T13:51:08.757Z,45.78
2023-03-26T13:56:40.833Z,44.34
2023-03-26T14:02:15.039Z,37.23
2023-03-26T14:08:04.278Z,39.53
2023-03-26T14:13:56.590Z,44.03
2023-03-26T14:19:49.953Z,46.72
2023-03-26T14:25:16.958Z,45.91
2023-03-26T14:30:43.129Z,45.00
2023-03-26T14:36:22.559Z,44.65
2023-03-26T14:42:12.389Z,44.38
2023-03-26T14:47:42.563Z,40.30
2023-03-26T14:53:13.195Z,34.11
2023-03-26T14:59:11.121Z,31.58
2023-03-26T15:05:09.645Z,31.38
2023-03-26T15:10:49.552Z,32.77
2023-03-26T15:16:47.688Z,30.06
2023-03-26T15:22:29.925Z,27.56
2023-03-26T15:28:28.280Z,23.95
2023-03-26T15:34:00.928Z,22.49
2023-03-26T15:39:44.202Z,23.67
2023-03-26T15:45:32.918Z,22.25
2023-03-26T15:51:08.843Z,20.40
2023-03-26T15:56:48.930Z,18.31
2023-03-26T16:02:29.951Z,16.15
2023-03-26T16:08:14.713Z,14.04
2023-03-26T16:13:49.207Z,12.91
2023-03-26T16:19:19.369Z,12.21
2023-03-26T16:24:46.481Z,12.19
2023-03-26T16:30:15.522Z,12.08
2023-03-26T16:36:25.855Z,11.95
2023-03-26T16:42:05.695Z,10.89
2023-03-26T16:47:37.496Z,10.40
2023-03-26T16:53:15.620Z,9.89
2023-03-26T16:59:00.337Z,9.36
2023-03-26T17:04:27.607Z,9.13
2023-03-26T17:10:15.863Z,8.79
2023-03-26T17:16:09.294Z,8.37
2023-03-26T17:22:02.243Z,7.99
2023-03-26T17:27:50.138Z,7.65
2023-03-26T17:33:27.733Z,7.32
2023-03-26T17:38:48.476Z,7.08
2023-03-26T17:44:37.296Z,6.65
2023-03-26T17:50:02.825Z,6.31
2023-03-26T17:55:34.080Z,6.16
2023-03-26T18:01:22.785Z,6.11
2023-03-26T18:06:55.404Z,6.03
2023-03-26T18:12:41.226Z,6.00
2023-03-26T18:18:18.321Z,5.95
2023-03-26T18:23:44.415Z,5.91
2023-03-26T18:29:25.169Z,5.81
2023-03-26T18:34:50.046Z,5.69
2023-03-26T18:40:19.236Z,5.55
2023-03-26T18:45:41.218Z,5.53
2023-03-26T18:51:07.188Z,5.47
2023-03-26T18:56:31.819Z,5.40
2023-03-26T19:01:52.857Z,5.43
2023-03-26T19:07:18.659Z,5.33
2023-03-26T19:12:39.628Z,5.33
2023-03-26T19:25:39.794Z,5.15
2023-03-26T19:31:19.297Z,5.09
2023-03-26T19:37:01.068Z,5.13
2023-03-26T19:42:26.550Z,5.11
2023-03-26T19:48:00.094Z,5.13
2023-03-26T19:53:33.616Z,5.12
2023-03-26T19:58:55.308Z,5.16
2023-03-26T20:04:16.173Z,5.17
2023-03-26T20:09:36.607Z,5.21
2023-03-26T20:14:57.595Z,5.24
2023-03-26T20:20:19.330Z,5.13
2023-03-26T20:25:49.377Z,5.08
2023-03-26T20:31:16.812Z,5.21
2023-03-26T20:36:38.450Z,5.15
2023-03-26T20:41:59.233Z,5.00
2023-03-26T20:47:20.052Z,4.86
2023-03-26T20:52:43.834Z,4.79
2023-03-26T20:58:04.576Z,4.54
2023-03-26T21:03:25.411Z,4.46
2023-03-26T21:08:46.149Z,4.35
2023-03-26T21:14:22.989Z,4.20
2023-03-26T21:19:43.935Z,4.01
2023-03-26T21:25:39.404Z,4.00
2023-03-26T21:31:00.044Z,3.98
2023-03-26T21:36:21.160Z,3.92
2023-03-26T21:41:47.638Z,3.92
2023-03-26T21:47:09.911Z,3.89
2023-03-26T21:52:31.832Z,3.84
2023-03-26T21:58:31.473Z,3.79
2023-03-26T22:03:57.562Z,3.77
2023-03-26T22:09:20.699Z,3.85
2023-03-26T22:14:47.383Z,3.89
2023-03-26T22:20:16.858Z,3.78
2023-03-26T22:25:37.093Z,3.80
2023-03-26T22:30:58.313Z,3.75
2023-03-26T22:36:23.459Z,3.72
2023-03-26T22:41:46.608Z,3.70
2023-03-26T22:47:08.229Z,3.72
2023-03-26T22:52:29.986Z,3.79
2023-03-26T22:57:52.175Z,3.81
2023-03-26T23:03:15.254Z,3.91
2023-03-26T23:08:37.853Z,4.05
2023-03-26T23:13:58.366Z,4.09
2023-03-26T23:19:19.462Z,4.10
2023-03-26T23:24:40.216Z,4.08
2023-03-26T23:30:01.358Z,4.16
2023-03-26T23:35:22.083Z,4.24
2023-03-26T23:40:44.211Z,4.10
2023-03-26T23:46:17.972Z,4.10
2023-03-26T23:51:38.523Z,4.15
2023-03-26T23:56:59.389Z,4.10
